createdAt,value
2023-03-06T00:00:35.457Z,791.00
2023-03-06T00:01:35.509Z,791.00
2023-03-06T00:02:35.562Z,790.00
2023-03-06T00:03:35.650Z,790.00
2023-03-06T00:04:35.659Z,790.00
2023-03-06T00:05:34.755Z,790.00
2023-03-06T00:06:35.744Z,790.00
2023-03-06T00:07:35.798Z,789.00
2023-03-06T00:08:35.882Z,786.00
2023-03-06T00:09:35.902Z,789.00
2023-03-06T00:10:35.951Z,787.00
2023-03-06T00:11:36.002Z,787.00
2023-03-06T00:12:36.038Z,787.00
2023-03-06T00:13:35.114Z,786.00
2023-03-06T00:14:35.108Z,787.00
2023-03-06T00:15:36.147Z,783.00
2023-03-06T00:16:36.315Z,783.00
2023-03-06T00:17:36.233Z,786.00
2023-03-06T00:18:36.265Z,787.00
2023-03-06T00:19:35.345Z,784.00
2023-03-06T00:20:35.332Z,782.00
2023-03-06T00:21:36.370Z,783.00
2023-03-06T00:22:36.383Z,783.00
2023-03-06T00:23:36.429Z,783.00
2023-03-06T00:24:36.424Z,783.00
2023-03-06T00:25:36.431Z,784.00
2023-03-06T00:26:35.448Z,785.00
2023-03-06T00:27:35.456Z,783.00
2023-03-06T00:28:35.463Z,779.00
2023-03-06T00:29:36.485Z,780.00
2023-03-06T00:30:36.565Z,780.00
2023-03-06T00:31:36.539Z,784.00
2023-03-06T00:32:35.554Z,784.00
2023-03-06T00:33:36.449Z,785.00
2023-03-06T00:34:35.453Z,785.00
2023-03-06T00:35:36.556Z,784.00
2023-03-06T00:36:36.476Z,784.00
2023-03-06T00:37:35.514Z,787.00
2023-03-06T00:38:36.479Z,789.00
2023-03-06T00:39:36.477Z,788.00
2023-03-06T00:40:35.486Z,788.00
2023-03-06T00:41:36.497Z,789.00
2023-03-06T00:42:36.543Z,788.00
2023-03-06T00:43:36.517Z,788.00
2023-03-06T00:44:36.542Z,786.00
2023-03-06T00:45:36.573Z,785.00
2023-03-06T00:46:36.540Z,784.00
2023-03-06T00:47:36.531Z,782.00
2023-03-06T00:48:36.556Z,782.00
2023-03-06T00:49:36.536Z,780.00
2023-03-06T00:50:36.541Z,777.00
2023-03-06T00:51:36.535Z,779.00
2023-03-06T00:52:35.541Z,778.00
2023-03-06T00:53:36.600Z,779.00
2023-03-06T00:54:36.549Z,782.00
2023-03-06T00:55:36.575Z,786.00
2023-03-06T00:56:36.560Z,787.00
2023-03-06T00:57:36.595Z,787.00
2023-03-06T00:58:36.602Z,785.00
2023-03-06T00:59:35.647Z,783.00
2023-03-06T01:00:36.782Z,784.00
2023-03-06T01:01:36.754Z,782.00
2023-03-06T01:02:36.809Z,782.00
2023-03-06T01:03:36.849Z,779.00
2023-03-06T01:04:36.904Z,778.00
2023-03-06T01:05:36.962Z,779.00
2023-03-06T01:06:37.042Z,777.00
2023-03-06T01:07:37.085Z,775.00
2023-03-06T01:08:37.147Z,776.00
2023-03-06T01:09:37.218Z,778.00
2023-03-06T01:10:36.243Z,780.00
2023-03-06T01:11:36.292Z,780.00
2023-03-06T01:12:37.362Z,782.00
2023-03-06T01:13:37.448Z,785.00
2023-03-06T01:14:37.501Z,788.00
2023-03-06T01:15:37.552Z,787.00
2023-03-06T01:16:37.660Z,789.00
2023-03-06T01:17:36.691Z,788.00
2023-03-06T01:18:36.752Z,787.00
2023-03-06T01:19:37.820Z,786.00
2023-03-06T01:20:36.882Z,784.00
2023-03-06T01:21:37.955Z,782.00
2023-03-06T01:22:38.001Z,781.00
2023-03-06T01:23:38.063Z,782.00
2023-03-06T01:24:38.124Z,782.00
2023-03-06T01:25:38.213Z,783.00
2023-03-06T01:26:38.252Z,783.00
2023-03-06T01:27:38.312Z,782.00
2023-03-06T01:28:38.371Z,783.00
2023-03-06T01:29:38.430Z,783.00
2023-03-06T01:30:38.488Z,783.00
2023-03-06T01:31:38.654Z,784.00
2023-03-06T01:32:38.717Z,786.00
2023-03-06T01:33:38.685Z,786.00
2023-03-06T01:34:37.746Z,786.00
2023-03-06T01:35:37.849Z,785.00
2023-03-06T01:36:38.855Z,784.00
2023-03-06T01:37:38.918Z,784.00
2023-03-06T01:38:38.980Z,788.00
2023-03-06T01:39:39.035Z,786.00
2023-03-06T01:40:39.112Z,785.00
2023-03-06T01:41:38.196Z,786.00
2023-03-06T01:42:39.219Z,785.00
2023-03-06T01:43:39.270Z,784.00
2023-03-06T01:44:39.338Z,782.00
2023-03-06T01:45:39.399Z,785.00
2023-03-06T01:46:38.438Z,783.00
2023-03-06T01:47:39.496Z,786.00
2023-03-06T01:48:39.565Z,786.00
2023-03-06T01:49:39.635Z,784.00
2023-03-06T01:50:38.673Z,787.00
2023-03-06T01:51:39.722Z,786.00
2023-03-06T01:52:39.816Z,782.00
2023-03-06T01:53:39.853Z,779.00
2023-03-06T01:54:38.906Z,779.00
2023-03-06T01:55:39.938Z,776.00
2023-03-06T01:56:38.996Z,776.00
2023-03-06T01:57:40.075Z,778.00
2023-03-06T01:58:40.101Z,776.00
2023-03-06T01:59:39.147Z,778.00
2023-03-06T02:00:40.211Z,780.00
2023-03-06T02:01:40.247Z,782.00
2023-03-06T02:02:40.345Z,781.00
2023-03-06T02:03:39.352Z,778.00
2023-03-06T02:04:40.454Z,778.00
2023-03-06T02:05:39.461Z,777.00
2023-03-06T02:06:40.525Z,777.00
2023-03-06T02:07:40.577Z,781.00
2023-03-06T02:08:40.632Z,780.00
2023-03-06T02:09:40.690Z,783.00
2023-03-06T02:10:40.731Z,784.00
2023-03-06T02:11:40.823Z,786.00
2023-03-06T02:12:40.825Z,784.00
2023-03-06T02:13:40.902Z,784.00
2023-03-06T02:14:40.941Z,783.00
2023-03-06T02:15:40.965Z,782.00
2023-03-06T02:16:41.108Z,781.00
2023-03-06T02:17:40.081Z,778.00
2023-03-06T02:18:41.118Z,776.00
2023-03-06T02:19:40.156Z,779.00
2023-03-06T02:20:41.201Z,774.00
2023-03-06T02:21:41.289Z,771.00
2023-03-06T02:22:41.300Z,770.00
2023-03-06T02:23:41.339Z,769.00
2023-03-06T02:24:41.387Z,771.00
2023-03-06T02:25:40.424Z,772.00
2023-03-06T02:26:41.469Z,775.00
2023-03-06T02:27:41.524Z,775.00
2023-03-06T02:28:41.555Z,774.00
2023-03-06T02:29:41.614Z,772.00
2023-03-06T02:30:40.682Z,771.00
2023-03-06T02:31:41.675Z,772.00
2023-03-06T02:32:40.713Z,775.00
2023-03-06T02:33:41.756Z,779.00
2023-03-06T02:34:40.804Z,776.00
2023-03-06T02:35:41.895Z,775.00
2023-03-06T02:36:40.888Z,775.00
2023-03-06T02:37:40.938Z,773.00
2023-03-06T02:38:41.975Z,770.00
2023-03-06T02:39:42.008Z,773.00
2023-03-06T02:40:42.045Z,772.00
2023-03-06T02:41:42.091Z,774.00
2023-03-06T02:42:42.135Z,773.00
2023-03-06T02:43:41.172Z,775.00
2023-03-06T02:44:41.255Z,780.00
2023-03-06T02:45:41.289Z,780.00
2023-03-06T02:46:41.309Z,780.00
2023-03-06T02:47:42.362Z,776.00
2023-03-06T02:48:42.425Z,775.00
2023-03-06T02:49:42.458Z,775.00
2023-03-06T02:50:41.522Z,780.00
2023-03-06T02:51:42.603Z,783.00
2023-03-06T02:52:42.600Z,781.00
2023-03-06T02:53:42.649Z,780.00
2023-03-06T02:54:42.711Z,784.00
2023-03-06T02:55:42.746Z,783.00
2023-03-06T02:56:41.780Z,778.00
2023-03-06T02:57:42.840Z,776.00
2023-03-06T02:58:42.881Z,776.00
2023-03-06T02:59:42.943Z,778.00
2023-03-06T03:00:41.968Z,778.00
2023-03-06T03:01:43.116Z,779.00
2023-03-06T03:02:43.071Z,777.00
2023-03-06T03:03:42.110Z,776.00
2023-03-06T03:04:42.209Z,775.00
2023-03-06T03:05:43.222Z,774.00
2023-03-06T03:06:42.269Z,776.00
2023-03-06T03:07:43.320Z,776.00
2023-03-06T03:08:43.372Z,777.00
2023-03-06T03:09:43.425Z,777.00
2023-03-06T03:10:42.480Z,778.00
2023-03-06T03:11:43.561Z,777.00
2023-03-06T03:12:43.611Z,777.00
2023-03-06T03:13:42.627Z,778.00
2023-03-06T03:14:43.700Z,777.00
2023-03-06T03:15:43.790Z,780.00
2023-03-06T03:16:43.773Z,784.00
2023-03-06T03:17:43.865Z,787.00
2023-03-06T03:18:43.886Z,786.00
2023-03-06T03:19:43.916Z,786.00
2023-03-06T03:20:42.991Z,786.00
2023-03-06T03:21:44.009Z,788.00
2023-03-06T03:22:44.054Z,786.00
2023-03-06T03:23:44.105Z,784.00
2023-03-06T03:24:44.177Z,783.00
2023-03-06T03:25:43.221Z,783.00
2023-03-06T03:26:43.241Z,781.00
2023-03-06T03:27:44.282Z,780.00
2023-03-06T03:28:44.343Z,779.00
2023-03-06T03:29:44.369Z,780.00
2023-03-06T03:30:44.428Z,781.00
2023-03-06T03:31:43.470Z,785.00
2023-03-06T03:32:44.544Z,787.00
2023-03-06T03:33:44.602Z,788.00
2023-03-06T03:34:44.626Z,790.00
2023-03-06T03:35:44.696Z,790.00
2023-03-06T03:36:44.715Z,791.00
2023-03-06T03:37:44.743Z,791.00
2023-03-06T03:38:44.800Z,789.00
2023-03-06T03:39:44.837Z,786.00
2023-03-06T03:40:44.916Z,788.00
2023-03-06T03:41:44.934Z,787.00
2023-03-06T03:42:44.981Z,784.00
2023-03-06T03:43:44.033Z,785.00
2023-03-06T03:44:45.072Z,785.00
2023-03-06T03:45:45.154Z,782.00
2023-03-06T03:46:45.261Z,783.00
2023-03-06T03:47:45.199Z,783.00
2023-03-06T03:48:45.246Z,783.00
2023-03-06T03:49:45.323Z,784.00
2023-03-06T03:50:45.374Z,782.00
2023-03-06T03:51:45.387Z,782.00
2023-03-06T03:52:44.434Z,782.00
2023-03-06T03:53:45.456Z,784.00
2023-03-06T03:54:45.509Z,785.00
2023-03-06T03:55:45.566Z,782.00
2023-03-06T03:56:45.629Z,781.00
2023-03-06T03:57:45.628Z,779.00
2023-03-06T03:58:44.688Z,780.00
2023-03-06T03:59:45.715Z,780.00
2023-03-06T04:00:44.763Z,781.00
2023-03-06T04:01:45.860Z,782.00
2023-03-06T04:02:45.857Z,779.00
2023-03-06T04:03:45.869Z,780.00
2023-03-06T04:04:45.935Z,780.00
2023-03-06T04:05:44.983Z,779.00
2023-03-06T04:06:46.019Z,780.00
2023-03-06T04:07:46.077Z,780.00
2023-03-06T04:08:46.107Z,780.00
2023-03-06T04:09:46.126Z,779.00
2023-03-06T04:10:46.174Z,777.00
2023-03-06T04:11:46.222Z,772.00
2023-03-06T04:12:46.264Z,773.00
2023-03-06T04:13:46.381Z,773.00
2023-03-06T04:14:46.334Z,776.00
2023-03-06T04:15:46.371Z,777.00
2023-03-06T04:16:45.417Z,779.00
2023-03-06T04:17:46.463Z,780.00
2023-03-06T04:18:46.507Z,780.00
2023-03-06T04:19:45.554Z,781.00
2023-03-06T04:20:46.597Z,781.00
2023-03-06T04:21:46.644Z,781.00
2023-03-06T04:22:45.660Z,779.00
2023-03-06T04:23:46.699Z,780.00
2023-03-06T04:24:46.751Z,779.00
2023-03-06T04:25:45.776Z,778.00
2023-03-06T04:26:46.824Z,781.00
2023-03-06T04:27:46.874Z,782.00
2023-03-06T04:28:45.894Z,781.00
2023-03-06T04:29:46.938Z,781.00
2023-03-06T04:30:46.989Z,781.00
2023-03-06T04:31:47.050Z,779.00
2023-03-06T04:32:46.054Z,778.00
2023-03-06T04:33:46.104Z,782.00
2023-03-06T04:34:46.153Z,782.00
2023-03-06T04:35:47.244Z,782.00
2023-03-06T04:36:47.220Z,785.00
2023-03-06T04:37:46.286Z,784.00
2023-03-06T04:38:46.421Z,785.00
2023-03-06T04:39:47.335Z,785.00
2023-03-06T04:40:47.377Z,785.00
2023-03-06T04:41:46.422Z,785.00
2023-03-06T04:42:47.480Z,789.00
2023-03-06T04:43:47.482Z,787.00
2023-03-06T04:44:47.533Z,787.00
2023-03-06T04:45:47.654Z,786.00
2023-03-06T04:46:47.634Z,787.00
2023-03-06T04:47:47.652Z,786.00
2023-03-06T04:48:46.686Z,787.00
2023-03-06T04:49:47.734Z,787.00
2023-03-06T04:50:46.776Z,787.00
2023-03-06T04:51:47.819Z,787.00
2023-03-06T04:52:47.865Z,787.00
2023-03-06T04:53:46.921Z,782.00
2023-03-06T04:54:46.938Z,783.00
2023-03-06T04:55:47.993Z,782.00
2023-03-06T04:56:48.006Z,781.00
2023-03-06T04:57:48.034Z,783.00
2023-03-06T04:58:48.072Z,784.00
2023-03-06T04:59:47.119Z,782.00
2023-03-06T05:00:48.229Z,780.00
2023-03-06T05:01:47.270Z,780.00
2023-03-06T05:02:48.231Z,779.00
2023-03-06T05:03:48.253Z,777.00
2023-03-06T05:04:48.302Z,778.00
2023-03-06T05:05:48.341Z,780.00
2023-03-06T05:06:48.386Z,777.00
2023-03-06T05:07:47.441Z,779.00
2023-03-06T05:08:47.462Z,780.00
2023-03-06T05:09:48.506Z,781.00
2023-03-06T05:10:48.531Z,783.00
2023-03-06T05:11:48.575Z,785.00
2023-03-06T05:12:47.606Z,784.00
2023-03-06T05:13:48.656Z,782.00
2023-03-06T05:14:48.682Z,784.00
2023-03-06T05:15:48.696Z,783.00
2023-03-06T05:16:48.835Z,784.00
2023-03-06T05:17:48.784Z,783.00
2023-03-06T05:18:50.602Z,780.00
2023-03-06T05:19:48.793Z,777.00
2023-03-06T05:20:48.793Z,775.00
2023-03-06T05:21:48.791Z,775.00
2023-03-06T05:22:48.773Z,775.00
2023-03-06T05:23:48.770Z,774.00
2023-03-06T05:24:48.776Z,773.00
2023-03-06T05:25:48.773Z,775.00
2023-03-06T05:26:47.741Z,776.00
2023-03-06T05:27:48.740Z,775.00
2023-03-06T05:28:48.732Z,774.00
2023-03-06T05:29:49.408Z,774.00
2023-03-06T05:30:48.713Z,775.00
2023-03-06T05:31:48.826Z,776.00
2023-03-06T05:32:48.744Z,777.00
2023-03-06T05:33:48.702Z,777.00
2023-03-06T05:34:48.679Z,780.00
2023-03-06T05:35:48.736Z,780.00
2023-03-06T05:36:48.681Z,779.00
2023-03-06T05:37:48.685Z,782.00
2023-03-06T05:38:48.688Z,783.00
2023-03-06T05:39:48.662Z,780.00
2023-03-06T05:40:48.659Z,779.00
2023-03-06T05:41:48.664Z,779.00
2023-03-06T05:42:48.651Z,781.00
2023-03-06T05:43:48.645Z,783.00
2023-03-06T05:44:48.623Z,787.00
2023-03-06T05:45:47.665Z,788.00
2023-03-06T05:46:47.610Z,784.00
2023-03-06T05:47:48.608Z,783.00
2023-03-06T05:48:48.587Z,783.00
2023-03-06T05:49:47.593Z,784.00
2023-03-06T05:50:48.595Z,784.00
2023-03-06T05:51:47.571Z,786.00
2023-03-06T05:52:48.619Z,785.00
2023-03-06T05:53:48.750Z,786.00
2023-03-06T05:54:48.698Z,788.00
2023-03-06T05:55:48.729Z,788.00
2023-03-06T05:56:47.777Z,789.00
2023-03-06T05:57:48.843Z,790.00
2023-03-06T05:58:47.873Z,787.00
2023-03-06T05:59:48.908Z,788.00
2023-03-06T06:00:47.958Z,787.00
2023-03-06T06:01:48.998Z,786.00
2023-03-06T06:02:49.044Z,787.00
2023-03-06T06:03:49.153Z,790.00
2023-03-06T06:04:49.122Z,791.00
2023-03-06T06:05:48.160Z,794.00
2023-03-06T06:06:49.205Z,792.00
2023-03-06T06:07:49.277Z,793.00
2023-03-06T06:08:49.293Z,791.00
2023-03-06T06:09:49.322Z,793.00
2023-03-06T06:10:51.581Z,793.00
2023-03-06T06:11:48.368Z,796.00
2023-03-06T06:12:49.369Z,792.00
2023-03-06T06:13:49.364Z,790.00
2023-03-06T06:14:48.339Z,793.00
2023-03-06T06:15:49.410Z,792.00
2023-03-06T06:16:49.342Z,793.00
2023-03-06T06:17:49.349Z,793.00
2023-03-06T06:18:49.321Z,789.00
2023-03-06T06:19:48.310Z,788.00
2023-03-06T06:20:49.312Z,786.00
2023-03-06T06:21:49.302Z,787.00
2023-03-06T06:22:49.303Z,785.00
2023-03-06T06:23:48.288Z,784.00
2023-03-06T06:24:49.298Z,787.00
2023-03-06T06:25:49.294Z,792.00
2023-03-06T06:26:49.264Z,797.00
2023-03-06T06:27:49.314Z,803.00
2023-03-06T06:28:49.340Z,803.00
2023-03-06T06:29:49.419Z,806.00
2023-03-06T06:30:49.463Z,808.00
2023-03-06T06:31:48.443Z,811.00
2023-03-06T06:32:49.482Z,813.00
2023-03-06T06:33:49.498Z,816.00
2023-03-06T06:34:49.534Z,820.00
2023-03-06T06:35:49.589Z,825.00
2023-03-06T06:36:52.213Z,831.00
2023-03-06T06:37:49.580Z,839.00
2023-03-06T06:38:49.543Z,847.00
2023-03-06T06:39:49.547Z,853.00
2023-03-06T06:41:26.897Z,862.00
2023-03-06T06:42:14.537Z,872.00
2023-03-06T06:42:49.529Z,879.00
2023-03-06T06:43:49.532Z,884.00
2023-03-06T06:44:49.623Z,895.00
2023-03-06T06:45:50.424Z,903.00
2023-03-06T06:47:49.552Z,915.00
2023-03-06T06:48:49.469Z,923.00
2023-03-06T06:49:49.482Z,938.00
2023-03-06T06:50:49.490Z,950.00
2023-03-06T06:51:49.541Z,970.00
2023-03-06T06:52:49.505Z,993.00
2023-03-06T06:53:49.446Z,1000.00
2023-03-06T06:54:49.442Z,1009.00
2023-03-06T06:55:49.462Z,1026.00
2023-03-06T06:56:49.428Z,1074.00
2023-03-06T06:57:49.429Z,1094.00
2023-03-06T06:58:49.420Z,1111.00
2023-03-06T06:59:51.262Z,1134.00
2023-03-06T07:00:49.413Z,1200.00
2023-03-06T07:01:49.460Z,1221.00
2023-03-06T07:02:49.456Z,1239.00
2023-03-06T07:03:49.398Z,1275.00
2023-03-06T07:05:03.013Z,1314.00
2023-03-06T07:05:49.375Z,1331.00
2023-03-06T07:06:48.936Z,1334.00
2023-03-06T07:07:49.370Z,1351.00
2023-03-06T07:08:49.325Z,1379.00
2023-03-06T07:09:49.315Z,1396.00
2023-03-06T07:10:49.320Z,1402.00
2023-03-06T07:11:49.354Z,1418.00
2023-03-06T07:12:49.332Z,1467.00
2023-03-06T07:13:49.311Z,1488.00
2023-03-06T07:14:49.296Z,1507.00
2023-03-06T07:15:48.326Z,1526.00
2023-03-06T07:16:49.278Z,1546.00
2023-03-06T07:17:50.294Z,1563.00
2023-03-06T07:18:48.263Z,1571.00
2023-03-06T07:19:49.275Z,1585.00
2023-03-06T07:20:49.240Z,1624.00
2023-03-06T07:21:49.277Z,1649.00
2023-03-06T07:22:51.602Z,1658.00
2023-03-06T07:23:49.284Z,1668.00
2023-03-06T07:24:49.267Z,1684.00
2023-03-06T07:25:48.218Z,1715.00
2023-03-06T07:26:48.208Z,1735.00
2023-03-06T07:27:53.475Z,1747.00
2023-03-06T07:28:52.750Z,1780.00
2023-03-06T07:29:49.174Z,1799.00
2023-03-06T07:30:48.162Z,1813.00
2023-03-06T07:31:49.172Z,1828.00
2023-03-06T07:32:49.188Z,1843.00
2023-03-06T07:33:49.178Z,1865.00
2023-03-06T07:34:49.193Z,1873.00
2023-03-06T07:35:49.156Z,1886.00
2023-03-06T07:36:49.149Z,1909.00
2023-03-06T07:37:48.121Z,1921.00
2023-03-06T07:38:49.156Z,1932.00
2023-03-06T07:39:49.122Z,1957.00
2023-03-06T07:40:49.110Z,1978.00
2023-03-06T07:41:49.102Z,1991.00
2023-03-06T07:42:49.132Z,2007.00
2023-03-06T07:43:49.093Z,2019.00
2023-03-06T07:44:48.100Z,2029.00
2023-03-06T07:45:49.070Z,2037.00
2023-03-06T07:46:49.107Z,2048.00
2023-03-06T07:47:49.049Z,2059.00
2023-03-06T07:48:49.069Z,2072.00
2023-03-06T07:49:48.073Z,2090.00
2023-03-06T07:50:48.056Z,2104.00
2023-03-06T07:51:49.058Z,2155.00
2023-03-06T07:52:49.037Z,2160.00
2023-03-06T07:53:49.449Z,2177.00
2023-03-06T07:54:49.018Z,2201.00
2023-03-06T07:55:49.015Z,1997.00
2023-03-06T07:56:49.009Z,2007.00
2023-03-06T07:57:49.004Z,2106.00
2023-03-06T07:58:49.467Z,2098.00
2023-03-06T07:59:47.971Z,2100.00
2023-03-06T08:00:48.969Z,2112.00
2023-03-06T08:01:48.956Z,2126.00
2023-03-06T08:02:49.045Z,2144.00
2023-03-06T08:03:48.979Z,2163.00
2023-03-06T08:04:48.941Z,2207.00
2023-03-06T08:05:49.004Z,2232.00
2023-03-06T08:06:48.941Z,2244.00
2023-03-06T08:07:48.937Z,2263.00
2023-03-06T08:08:48.949Z,2288.00
2023-03-06T08:09:48.909Z,2306.00
2023-03-06T08:10:48.924Z,2323.00
2023-03-06T08:11:48.959Z,2345.00
2023-03-06T08:12:48.987Z,2397.00
2023-03-06T08:13:49.042Z,2421.00
2023-03-06T08:14:49.056Z,2431.00
2023-03-06T08:15:48.061Z,2450.00
2023-03-06T08:16:48.126Z,2478.00
2023-03-06T08:17:49.145Z,2494.00
2023-03-06T08:18:48.204Z,2516.00
2023-03-06T08:19:49.249Z,2534.00
2023-03-06T08:20:49.321Z,2556.00
2023-03-06T08:21:49.408Z,2576.00
2023-03-06T08:22:48.442Z,2595.00
2023-03-06T08:23:49.479Z,2624.00
2023-03-06T08:24:49.506Z,2674.00
2023-03-06T08:25:49.559Z,2696.00
2023-03-06T08:26:49.644Z,2717.00
2023-03-06T08:27:49.722Z,2759.00
2023-03-06T08:28:49.742Z,2793.00
2023-03-06T08:29:49.803Z,2801.00
2023-03-06T08:30:49.858Z,2812.00
2023-03-06T08:31:49.971Z,2827.00
2023-03-06T08:32:49.021Z,2852.00
2023-03-06T08:33:50.064Z,2873.00
2023-03-06T08:34:50.104Z,2881.00
2023-03-06T08:35:50.217Z,2895.00
2023-03-06T08:36:49.231Z,2920.00
2023-03-06T08:37:50.303Z,2944.00
2023-03-06T08:38:49.324Z,2995.00
2023-03-06T08:39:50.356Z,3012.00
2023-03-06T08:40:50.398Z,3026.00
2023-03-06T08:41:50.435Z,3038.00
2023-03-06T08:42:50.484Z,3054.00
2023-03-06T08:43:50.517Z,3109.00
2023-03-06T08:44:50.568Z,3120.00
2023-03-06T08:45:50.696Z,3143.00
2023-03-06T08:46:50.637Z,3156.00
2023-03-06T08:47:50.722Z,3173.00
2023-03-06T08:48:51.018Z,3200.00
2023-03-06T08:49:49.825Z,3215.00
2023-03-06T08:50:49.873Z,3227.00
2023-03-06T08:51:50.913Z,3243.00
2023-03-06T08:52:50.002Z,3269.00
2023-03-06T08:53:51.065Z,3291.00
2023-03-06T08:54:51.067Z,3380.00
2023-03-06T08:55:51.104Z,3389.00
2023-03-06T08:56:51.154Z,3391.00
2023-03-06T08:57:51.211Z,3415.00
2023-03-06T08:58:51.246Z,3437.00
2023-03-06T08:59:50.262Z,3462.00
2023-03-06T09:00:50.446Z,3489.00
2023-03-06T09:01:51.367Z,3509.00
2023-03-06T09:02:50.392Z,3532.00
2023-03-06T09:03:51.461Z,3548.00
2023-03-06T09:04:50.506Z,3572.00
2023-03-06T09:05:50.507Z,3590.00
2023-03-06T09:06:51.530Z,3609.00
2023-03-06T09:07:50.566Z,3631.00
2023-03-06T09:08:51.588Z,3653.00
2023-03-06T09:09:51.691Z,3667.00
2023-03-06T09:10:51.757Z,3680.00
2023-03-06T09:11:51.702Z,3696.00
2023-03-06T09:12:54.416Z,3734.00
2023-03-06T09:13:51.726Z,3757.00
2023-03-06T09:14:51.692Z,3770.00
2023-03-06T09:15:51.699Z,3781.00
2023-03-06T09:16:51.749Z,3798.00
2023-03-06T09:17:51.697Z,3807.00
2023-03-06T09:18:51.681Z,3826.00
2023-03-06T09:19:51.658Z,3844.00
2023-03-06T09:20:51.672Z,3866.00
2023-03-06T09:21:51.670Z,3901.00
2023-03-06T09:22:51.650Z,3925.00
2023-03-06T09:23:51.645Z,3946.00
2023-03-06T09:24:51.641Z,4160.00
2023-03-06T09:25:50.650Z,4055.00
2023-03-06T09:26:51.836Z,4040.00
2023-03-06T09:28:08.658Z,4042.00
2023-03-06T09:28:51.617Z,4056.00
2023-03-06T09:29:51.597Z,4069.00
2023-03-06T09:30:51.619Z,4086.00
2023-03-06T09:31:50.568Z,4110.00
2023-03-06T09:32:51.572Z,4143.00
2023-03-06T09:33:51.574Z,4187.00
2023-03-06T09:34:50.570Z,4218.00
2023-03-06T09:35:51.582Z,4231.00
2023-03-06T09:36:56.505Z,4240.00
2023-03-06T09:37:51.550Z,4252.00
2023-03-06T09:38:51.541Z,4279.00
2023-03-06T09:39:51.523Z,4323.00
2023-03-06T09:40:50.536Z,4348.00
2023-03-06T09:41:51.549Z,4345.00
2023-03-06T09:42:51.517Z,4163.00
2023-03-06T09:43:51.996Z,4101.00
2023-03-06T09:44:51.512Z,3579.00
2023-03-06T09:45:51.563Z,3545.00
2023-03-06T09:46:51.479Z,3237.00
2023-03-06T09:47:51.478Z,3625.00
2023-03-06T09:48:51.471Z,3314.00
2023-03-06T09:49:50.478Z,2654.00
2023-03-06T09:50:51.450Z,3139.00
2023-03-06T09:51:50.453Z,2994.00
2023-03-06T09:52:51.475Z,3020.00
2023-03-06T09:53:51.433Z,2857.00
2023-03-06T09:54:51.423Z,2865.00
2023-03-06T09:55:51.417Z,2879.00
2023-03-06T09:56:51.411Z,2872.00
2023-03-06T09:57:52.439Z,2877.00
2023-03-06T09:58:51.537Z,2887.00
2023-03-06T09:59:50.398Z,2911.00
2023-03-06T10:00:51.379Z,2930.00
2023-03-06T10:01:50.369Z,2951.00
2023-03-06T10:02:51.519Z,2964.00
2023-03-06T10:03:50.365Z,2984.00
2023-03-06T10:04:50.427Z,3001.00
2023-03-06T10:05:51.350Z,3018.00
2023-03-06T10:06:51.341Z,3035.00
2023-03-06T10:07:50.348Z,3067.00
2023-03-06T10:08:51.315Z,3084.00
2023-03-06T10:09:50.400Z,3098.00
2023-03-06T10:10:51.314Z,3117.00
2023-03-06T10:11:50.362Z,3135.00
2023-03-06T10:12:50.377Z,3154.00
2023-03-06T10:13:51.527Z,3177.00
2023-03-06T10:14:51.503Z,3195.00
2023-03-06T10:15:50.545Z,3213.00
2023-03-06T10:16:51.586Z,3295.00
2023-03-06T10:17:51.631Z,3298.00
2023-03-06T10:18:50.683Z,3296.00
2023-03-06T10:19:51.735Z,3312.00
2023-03-06T10:20:50.758Z,3332.00
2023-03-06T10:21:51.802Z,3351.00
2023-03-06T10:23:00.622Z,3376.00
2023-03-06T10:23:51.831Z,3392.00
2023-03-06T10:24:50.827Z,3402.00
2023-03-06T10:25:50.832Z,3421.00
2023-03-06T10:26:51.951Z,3445.00
2023-03-06T10:27:51.807Z,3461.00
2023-03-06T10:28:51.812Z,3489.00
2023-03-06T10:30:02.117Z,3510.00
2023-03-06T10:30:51.915Z,3541.00
2023-03-06T10:31:51.786Z,3564.00
2023-03-06T10:32:51.810Z,3589.00
2023-03-06T10:33:51.762Z,3620.00
2023-03-06T10:34:51.776Z,3670.00
2023-03-06T10:35:50.888Z,3698.00
2023-03-06T10:36:51.759Z,3711.00
2023-03-06T10:37:51.746Z,3724.00
2023-03-06T10:38:51.758Z,3747.00
2023-03-06T10:39:51.724Z,3770.00
2023-03-06T10:40:51.714Z,3795.00
2023-03-06T10:41:51.737Z,3828.00
2023-03-06T10:42:58.768Z,3850.00
2023-03-06T10:43:51.708Z,3865.00
2023-03-06T10:44:51.026Z,3892.00
2023-03-06T10:45:50.757Z,3932.00
2023-03-06T10:46:51.697Z,3945.00
2023-03-06T10:47:51.667Z,3960.00
2023-03-06T10:48:51.682Z,3976.00
2023-03-06T10:49:52.026Z,3986.00
2023-03-06T10:50:51.625Z,3997.00
2023-03-06T10:51:51.671Z,4005.00
2023-03-06T10:52:51.618Z,4017.00
2023-03-06T10:53:51.679Z,4055.00
2023-03-06T10:54:51.047Z,4080.00
2023-03-06T10:55:51.603Z,4082.00
2023-03-06T10:56:51.593Z,4070.00
2023-03-06T10:57:51.598Z,3796.00
2023-03-06T10:58:51.577Z,3456.00
2023-03-06T10:59:51.603Z,3595.00
2023-03-06T11:00:51.552Z,3746.00
2023-03-06T11:01:51.713Z,3548.00
2023-03-06T11:02:51.532Z,3162.00
2023-03-06T11:03:51.575Z,3417.00
2023-03-06T11:04:51.648Z,3432.00
2023-03-06T11:05:51.505Z,3372.00
2023-03-06T11:06:51.510Z,3227.00
2023-03-06T11:07:51.493Z,3161.00
2023-03-06T11:08:51.532Z,3110.00
2023-03-06T11:09:51.501Z,3077.00
2023-03-06T11:10:51.484Z,3068.00
2023-03-06T11:11:51.480Z,3064.00
2023-03-06T11:12:51.477Z,3056.00
2023-03-06T11:13:51.454Z,3051.00
2023-03-06T11:14:51.453Z,3054.00
2023-03-06T11:15:51.479Z,3066.00
2023-03-06T11:16:51.445Z,3073.00
2023-03-06T11:17:51.528Z,3081.00
2023-03-06T11:18:51.444Z,3101.00
2023-03-06T11:19:51.451Z,3114.00
2023-03-06T11:20:52.843Z,3134.00
2023-03-06T11:21:50.573Z,3159.00
2023-03-06T11:22:51.575Z,3199.00
2023-03-06T11:23:51.605Z,3214.00
2023-03-06T11:24:51.604Z,3222.00
2023-03-06T11:25:51.634Z,3236.00
2023-03-06T11:26:51.647Z,3252.00
2023-03-06T11:27:51.640Z,3269.00
2023-03-06T11:28:50.678Z,3287.00
2023-03-06T11:29:51.679Z,3310.00
2023-03-06T11:30:51.680Z,3324.00
2023-03-06T11:31:50.684Z,3338.00
2023-03-06T11:32:51.702Z,3358.00
2023-03-06T11:33:51.723Z,3373.00
2023-03-06T11:34:51.717Z,3399.00
2023-03-06T11:35:51.798Z,3422.00
2023-03-06T11:36:51.711Z,3446.00
2023-03-06T11:37:51.716Z,3467.00
2023-03-06T11:38:51.725Z,3511.00
2023-03-06T11:39:51.796Z,3551.00
2023-03-06T11:40:51.752Z,3566.00
2023-03-06T11:41:51.751Z,3611.00
2023-03-06T11:42:51.763Z,3629.00
2023-03-06T11:43:50.730Z,3640.00
2023-03-06T11:44:50.725Z,3660.00
2023-03-06T11:45:51.747Z,3574.00
2023-03-06T11:46:51.850Z,3515.00
2023-03-06T11:47:51.805Z,3431.00
2023-03-06T11:48:51.801Z,3430.00
2023-03-06T11:49:51.894Z,3441.00
2023-03-06T11:50:51.827Z,3427.00
2023-03-06T11:51:51.860Z,3234.00
2023-03-06T11:52:51.869Z,3207.00
2023-03-06T11:53:51.920Z,3135.00
2023-03-06T11:54:51.913Z,3168.00
2023-03-06T11:55:51.967Z,3182.00
2023-03-06T11:56:52.040Z,3192.00
2023-03-06T11:57:51.986Z,3194.00
2023-03-06T11:58:52.014Z,3191.00
2023-03-06T11:59:52.031Z,3186.00
2023-03-06T12:00:52.034Z,3193.00
2023-03-06T12:01:52.166Z,3205.00
2023-03-06T12:02:52.044Z,3212.00
2023-03-06T12:03:52.047Z,3229.00
2023-03-06T12:04:52.073Z,3250.00
2023-03-06T12:05:52.087Z,3270.00
2023-03-06T12:06:52.070Z,3294.00
2023-03-06T12:07:52.090Z,3306.00
2023-03-06T12:08:52.078Z,3315.00
2023-03-06T12:09:52.101Z,3336.00
2023-03-06T12:10:52.446Z,3368.00
2023-03-06T12:11:52.092Z,3380.00
2023-03-06T12:12:52.083Z,3393.00
2023-03-06T12:14:51.099Z,3415.00
2023-03-06T12:15:52.101Z,3432.00
2023-03-06T12:16:52.175Z,3459.00
2023-03-06T12:17:52.085Z,3488.00
2023-03-06T12:18:52.080Z,3504.00
2023-03-06T12:19:51.112Z,3519.00
2023-03-06T12:20:52.088Z,3541.00